createdAt,value
2017-11-28T00:00:26.148Z,82.97
2017-11-28T00:01:31.786Z,83.02
2017-11-28T00:02:37.651Z,82.86
2017-11-28T00:03:43.450Z,82.87
2017-11-28T00:04:49.558Z,82.62
2017-11-28T00:05:55.284Z,82.59
2017-11-28T00:07:01.369Z,82.42
2017-11-28T00:08:08.672Z,82.45
2017-11-28T00:09:14.420Z,82.63
2017-11-28T00:10:20.289Z,82.82
2017-11-28T00:11:25.844Z,82.73
2017-11-28T00:12:31.900Z,82.56
2017-11-28T00:13:37.143Z,82.68
2017-11-28T00:14:42.314Z,82.59
2017-11-28T00:15:48.074Z,82.91
2017-11-28T00:16:54.165Z,82.91
2017-11-28T00:17:59.696Z,82.77
2017-11-28T00:19:05.061Z,82.99
2017-11-28T00:20:10.490Z,83.17
2017-11-28T00:21:16.756Z,83.13
2017-11-28T00:22:22.845Z,83.23
2017-11-28T00:23:27.992Z,83.08
2017-11-28T00:24:33.410Z,83.05
2017-11-28T00:25:39.170Z,83.14
2017-11-28T00:26:44.534Z,83.10
2017-11-28T00:27:49.918Z,82.85
2017-11-28T00:28:55.326Z,82.73
2017-11-28T00:30:00.733Z,82.71
2017-11-28T00:31:06.154Z,83.02
2017-11-28T00:32:11.568Z,82.90
2017-11-28T00:33:17.592Z,82.92
2017-11-28T00:34:23.359Z,83.11
2017-11-28T00:35:30.910Z,83.16
2017-11-28T00:36:36.679Z,83.15
2017-11-28T00:37:42.080Z,83.25
2017-11-28T00:38:47.242Z,83.24
2017-11-28T00:39:52.642Z,83.23
2017-11-28T00:40:58.072Z,83.54
2017-11-28T00:42:04.151Z,83.54
2017-11-28T00:43:09.568Z,83.60
2017-11-28T00:44:15.126Z,83.75
2017-11-28T00:45:20.322Z,83.86
2017-11-28T00:46:25.837Z,83.95
2017-11-28T00:47:31.073Z,84.14
2017-11-28T00:48:36.820Z,83.90
2017-11-28T00:49:42.272Z,83.89
2017-11-28T00:50:47.683Z,84.11
2017-11-28T00:51:53.372Z,84.19
2017-11-28T00:52:58.780Z,84.15
2017-11-28T00:54:04.523Z,84.17
2017-11-28T00:55:09.910Z,84.16
2017-11-28T00:56:15.682Z,84.11
2017-11-28T00:57:21.423Z,83.78
2017-11-28T00:58:26.698Z,83.84
2017-11-28T00:59:32.041Z,83.93
2017-11-28T01:00:38.091Z,84.13
2017-11-28T01:01:44.055Z,84.33
2017-11-28T01:02:50.088Z,84.38
2017-11-28T01:03:55.515Z,84.33
2017-11-28T01:05:01.631Z,84.41
2017-11-28T01:06:07.308Z,84.55
2017-11-28T01:07:13.565Z,84.41
2017-11-28T01:08:18.929Z,84.06
2017-11-28T01:09:24.129Z,84.32
2017-11-28T01:10:29.315Z,84.11
2017-11-28T01:11:35.104Z,84.01
2017-11-28T01:12:40.662Z,84.09
2017-11-28T01:13:46.339Z,84.23
2017-11-28T01:14:51.742Z,84.57
2017-11-28T01:15:57.102Z,84.66
2017-11-28T01:17:02.878Z,84.71
2017-11-28T01:18:13.254Z,84.49
2017-11-28T01:19:19.433Z,84.30
2017-11-28T01:20:24.855Z,84.33
2017-11-28T01:21:30.204Z,84.45
2017-11-28T01:22:36.033Z,84.75
2017-11-28T01:23:41.414Z,84.62
2017-11-28T01:24:46.832Z,84.63
2017-11-28T01:25:55.920Z,84.71
2017-11-28T01:27:01.343Z,84.68
2017-11-28T01:28:07.055Z,84.52
2017-11-28T01:29:12.999Z,84.52
2017-11-28T01:30:18.378Z,84.70
2017-11-28T01:31:23.591Z,84.64
2017-11-28T01:32:28.972Z,84.88
2017-11-28T01:33:34.372Z,84.81
2017-11-28T01:34:44.788Z,84.98
2017-11-28T01:35:52.001Z,84.89
2017-11-28T01:36:58.052Z,84.79
2017-11-28T01:38:04.164Z,84.56
2017-11-28T01:39:09.588Z,84.71
2017-11-28T01:40:14.990Z,84.43
2017-11-28T01:41:20.205Z,84.45
2017-11-28T01:42:25.660Z,84.79
2017-11-28T01:43:30.873Z,85.04
2017-11-28T01:44:36.340Z,84.92
2017-11-28T01:45:44.829Z,84.78
2017-11-28T01:46:52.244Z,84.86
2017-11-28T01:47:57.587Z,84.76
2017-11-28T01:49:02.986Z,84.95
2017-11-28T01:50:08.215Z,84.89
2017-11-28T01:51:13.401Z,84.96
2017-11-28T01:52:18.562Z,85.02
2017-11-28T01:53:23.750Z,84.98
2017-11-28T01:54:29.117Z,85.12
2017-11-28T01:55:34.352Z,85.10
2017-11-28T01:56:39.761Z,85.28
2017-11-28T01:57:44.910Z,85.11
2017-11-28T01:58:50.368Z,85.24
2017-11-28T01:59:55.681Z,85.29
2017-11-28T02:01:00.894Z,85.30
2017-11-28T02:02:05.466Z,85.01
2017-11-28T02:03:10.635Z,84.89
2017-11-28T02:04:15.939Z,85.00
2017-11-28T02:05:25.053Z,84.80
2017-11-28T02:06:30.563Z,84.90
2017-11-28T02:07:35.566Z,84.98
2017-11-28T02:08:41.719Z,84.95
2017-11-28T02:09:46.746Z,84.95
2017-11-28T02:10:52.119Z,84.90
2017-11-28T02:11:57.286Z,85.01
2017-11-28T02:13:02.554Z,84.84
2017-11-28T02:14:12.539Z,84.90
2017-11-28T02:15:18.048Z,84.93
2017-11-28T02:16:23.029Z,84.80
2017-11-28T02:17:28.527Z,85.00
2017-11-28T02:18:33.544Z,84.96
2017-11-28T02:19:38.716Z,84.94
2017-11-28T02:20:43.790Z,84.85
2017-11-28T02:21:51.930Z,84.57
2017-11-28T02:22:57.133Z,84.49
2017-11-28T02:24:02.367Z,84.95
2017-11-28T02:25:07.341Z,84.81
2017-11-28T02:26:12.357Z,85.00
2017-11-28T02:27:17.938Z,85.00
2017-11-28T02:28:23.210Z,85.01
2017-11-28T02:29:28.433Z,85.21
2017-11-28T02:30:33.467Z,85.17
2017-11-28T02:31:38.681Z,85.35
2017-11-28T02:32:44.607Z,85.27
2017-11-28T02:33:49.834Z,84.98
2017-11-28T02:34:55.748Z,85.09
2017-11-28T02:36:01.206Z,84.93
2017-11-28T02:37:06.411Z,84.83
2017-11-28T02:38:11.695Z,84.62
2017-11-28T02:39:16.900Z,84.46
2017-11-28T02:40:33.802Z,84.24
2017-11-28T02:41:38.942Z,84.13
2017-11-28T02:42:44.106Z,84.27
2017-11-28T02:43:53.044Z,84.42
2017-11-28T02:44:58.206Z,84.38
2017-11-28T02:46:03.386Z,84.35
2017-11-28T02:47:08.624Z,84.28
2017-11-28T02:48:13.844Z,84.11
2017-11-28T02:49:33.453Z,83.90
2017-11-28T02:50:38.604Z,83.84
2017-11-28T02:51:44.755Z,83.90
2017-11-28T02:52:50.743Z,83.83
2017-11-28T02:53:55.937Z,83.89
2017-11-28T02:55:08.533Z,83.78
2017-11-28T02:56:17.554Z,83.74
2017-11-28T02:57:22.764Z,83.63
2017-11-28T02:58:30.349Z,83.58
2017-11-28T02:59:35.529Z,83.35
2017-11-28T03:00:50.672Z,82.93
2017-11-28T03:01:59.785Z,82.94
2017-11-28T03:03:04.969Z,82.95
2017-11-28T03:04:10.206Z,82.78
2017-11-28T03:05:15.715Z,82.41
2017-11-28T03:06:20.887Z,82.03
2017-11-28T03:07:26.975Z,82.17
2017-11-28T03:08:32.132Z,82.19
2017-11-28T03:09:41.068Z,82.33
2017-11-28T03:10:47.264Z,82.53
2017-11-28T03:11:52.465Z,82.29
2017-11-28T03:12:59.324Z,82.10
2017-11-28T03:14:10.394Z,81.88
2017-11-28T03:15:27.155Z,81.78
2017-11-28T03:16:32.408Z,81.68
2017-11-28T03:17:37.576Z,81.74
2017-11-28T03:18:46.513Z,81.80
2017-11-28T03:19:52.597Z,81.79
2017-11-28T03:21:00.585Z,81.65
2017-11-28T03:22:25.512Z,81.31
2017-11-28T03:23:51.580Z,81.35
2017-11-28T03:25:17.590Z,81.06
2017-11-28T03:26:27.694Z,81.12
2017-11-28T03:27:32.615Z,81.35
2017-11-28T03:28:42.998Z,81.19
2017-11-28T03:29:52.524Z,81.27
2017-11-28T03:31:03.781Z,81.12
2017-11-28T03:32:08.728Z,81.28
2017-11-28T03:33:13.613Z,81.24
2017-11-28T03:34:19.572Z,81.43
2017-11-28T03:35:24.530Z,81.28
2017-11-28T03:36:29.550Z,81.65
2017-11-28T03:37:34.249Z,81.88
2017-11-28T03:38:39.145Z,81.74
2017-11-28T03:39:44.021Z,81.72
2017-11-28T03:40:52.010Z,81.51
2017-11-28T03:41:56.967Z,81.44
2017-11-28T03:43:01.891Z,81.66
2017-11-28T03:44:06.840Z,81.65
2017-11-28T03:45:29.743Z,81.89
2017-11-28T03:46:35.239Z,82.01
2017-11-28T03:47:40.255Z,81.94
2017-11-28T03:48:49.440Z,82.07
2017-11-28T03:49:54.433Z,82.27
2017-11-28T03:50:59.808Z,82.25
2017-11-28T03:52:05.003Z,82.14
2017-11-28T03:53:10.180Z,82.01
2017-11-28T03:54:15.348Z,82.11
2017-11-28T03:55:20.511Z,82.32
2017-11-28T03:56:25.759Z,82.31
2017-11-28T03:57:31.038Z,82.51
2017-11-28T03:58:36.275Z,82.40
2017-11-28T03:59:47.288Z,82.45
2017-11-28T04:00:52.715Z,82.61
2017-11-28T04:02:01.208Z,82.52
2017-11-28T04:03:06.460Z,82.38
2017-11-28T04:04:11.704Z,82.37
2017-11-28T04:05:16.961Z,82.45
2017-11-28T04:06:22.207Z,82.34
2017-11-28T04:07:27.585Z,82.41
2017-11-28T04:08:36.834Z,82.26
2017-11-28T04:09:42.039Z,82.16
2017-11-28T04:10:47.225Z,82.38
2017-11-28T04:11:52.382Z,82.17
2017-11-28T04:12:59.054Z,82.27
2017-11-28T04:14:04.538Z,82.33
2017-11-28T04:15:09.789Z,82.30
2017-11-28T04:16:14.997Z,82.34
2017-11-28T04:17:20.145Z,82.48
2017-11-28T04:18:25.330Z,82.35
2017-11-28T04:19:30.697Z,82.23
2017-11-28T04:20:36.830Z,82.04
2017-11-28T04:21:42.098Z,81.99
2017-11-28T04:22:47.467Z,82.02
2017-11-28T04:23:55.590Z,82.17
2017-11-28T04:25:00.746Z,82.30
2017-11-28T04:26:06.252Z,82.40
2017-11-28T04:27:11.629Z,82.66
2017-11-28T04:28:16.812Z,82.65
2017-11-28T04:29:21.981Z,82.69
2017-11-28T04:30:27.182Z,82.51
2017-11-28T04:31:32.423Z,82.44
2017-11-28T04:32:37.865Z,82.44
2017-11-28T04:33:43.092Z,82.39
2017-11-28T04:34:48.592Z,82.26
2017-11-28T04:35:53.763Z,82.42
2017-11-28T04:36:58.919Z,82.20
2017-11-28T04:38:04.137Z,82.21
2017-11-28T04:39:09.295Z,82.21
2017-11-28T04:40:14.778Z,82.47
2017-11-28T04:41:19.971Z,82.46
2017-11-28T04:42:25.189Z,82.51
2017-11-28T04:43:30.386Z,82.62
2017-11-28T04:44:35.572Z,82.65
2017-11-28T04:45:40.733Z,82.58
2017-11-28T04:46:45.939Z,82.44
2017-11-28T04:47:51.139Z,82.45
2017-11-28T04:48:56.366Z,82.22
2017-11-28T04:50:01.795Z,82.19
2017-11-28T04:51:07.129Z,82.08
2017-11-28T04:52:12.347Z,81.85
2017-11-28T04:53:17.546Z,81.92
2017-11-28T04:54:22.711Z,82.23
2017-11-28T04:55:27.930Z,82.00
2017-11-28T04:56:33.467Z,82.20
2017-11-28T04:57:38.950Z,82.32
2017-11-28T04:58:44.100Z,82.17
2017-11-28T04:59:49.281Z,81.87
2017-11-28T05:00:54.511Z,81.62
2017-11-28T05:01:59.688Z,81.70
2017-11-28T05:03:04.926Z,81.82
2017-11-28T05:04:10.085Z,82.14
2017-11-28T05:05:15.417Z,81.98
2017-11-28T05:06:20.625Z,81.84
2017-11-28T05:07:25.586Z,81.92
2017-11-28T05:08:31.837Z,81.87
2017-11-28T05:09:37.366Z,81.98
2017-11-28T05:10:48.431Z,82.03
2017-11-28T05:11:53.895Z,82.20
2017-11-28T05:13:01.060Z,82.29
2017-11-28T05:14:06.599Z,82.14
2017-11-28T05:15:11.802Z,82.32
2017-11-28T05:16:16.996Z,82.25
2017-11-28T05:17:22.759Z,82.37
2017-11-28T05:18:28.468Z,82.42
2017-11-28T05:19:33.928Z,82.25
2017-11-28T05:20:40.512Z,82.21
2017-11-28T05:21:45.950Z,82.51
2017-11-28T05:22:50.981Z,82.89
2017-11-28T05:23:56.174Z,82.93
2017-11-28T05:25:01.399Z,83.02
2017-11-28T05:26:07.139Z,83.36
2017-11-28T05:27:12.442Z,83.64
2017-11-28T05:28:17.646Z,83.48
2017-11-28T05:29:22.865Z,83.49
2017-11-28T05:30:27.854Z,83.33
2017-11-28T05:31:33.113Z,83.44
2017-11-28T05:32:38.317Z,83.55
2017-11-28T05:33:44.062Z,83.57
2017-11-28T05:34:49.313Z,83.78
2017-11-28T05:35:54.881Z,83.95
2017-11-28T05:37:00.069Z,83.96
2017-11-28T05:38:05.249Z,84.13
2017-11-28T05:39:10.487Z,83.84
2017-11-28T05:40:15.652Z,83.96
2017-11-28T05:41:20.679Z,84.28
2017-11-28T05:42:26.321Z,84.26
2017-11-28T05:43:31.506Z,84.66
2017-11-28T05:44:36.765Z,84.97
2017-11-28T05:45:42.766Z,85.12
2017-11-28T05:46:48.037Z,84.83
2017-11-28T05:47:53.239Z,85.24
2017-11-28T05:48:58.421Z,85.13
2017-11-28T05:50:03.610Z,84.96
2017-11-28T05:51:10.022Z,84.76
2017-11-28T05:52:15.253Z,84.84
2017-11-28T05:53:21.399Z,85.17
2017-11-28T05:54:26.550Z,85.01
2017-11-28T05:55:31.794Z,85.00
2017-11-28T05:56:39.798Z,84.91
2017-11-28T05:57:45.144Z,84.91
2017-11-28T05:58:50.310Z,84.87
2017-11-28T05:59:55.555Z,84.98
2017-11-28T06:01:01.776Z,84.92
2017-11-28T06:02:07.194Z,84.51
2017-11-28T06:03:12.430Z,84.50
2017-11-28T06:04:17.631Z,84.42
2017-11-28T06:05:23.128Z,84.60
2017-11-28T06:06:28.308Z,84.52
2017-11-28T06:07:33.579Z,84.53
2017-11-28T06:08:42.071Z,85.10
2017-11-28T06:09:47.333Z,85.25
2017-11-28T06:10:52.495Z,85.03
2017-11-28T06:11:57.688Z,85.14
2017-11-28T06:13:02.897Z,84.90
2017-11-28T06:14:08.160Z,84.75
2017-11-28T06:15:14.523Z,84.60
2017-11-28T06:16:19.713Z,84.72
2017-11-28T06:17:24.900Z,84.61
2017-11-28T06:18:29.919Z,84.26
2017-11-28T06:19:35.141Z,84.06
2017-11-28T06:20:40.151Z,84.34
2017-11-28T06:21:45.330Z,84.16
2017-11-28T06:22:50.598Z,84.12
2017-11-28T06:23:55.690Z,84.12
2017-11-28T06:25:00.895Z,83.99
2017-11-28T06:26:06.141Z,84.40
2017-11-28T06:27:11.374Z,84.29
2017-11-28T06:28:16.389Z,84.04
2017-11-28T06:29:21.453Z,84.05
2017-11-28T06:30:26.655Z,84.32
2017-11-28T06:31:31.874Z,84.00
2017-11-28T06:32:37.320Z,84.41
2017-11-28T06:33:42.667Z,84.35
2017-11-28T06:34:47.937Z,84.23
2017-11-28T06:35:53.452Z,84.12
2017-11-28T06:36:58.637Z,83.96
2017-11-28T06:38:03.811Z,83.83
2017-11-28T06:39:09.070Z,83.99
2017-11-28T06:40:14.471Z,84.31
2017-11-28T06:41:19.702Z,84.33
2017-11-28T06:42:24.881Z,84.16
2017-11-28T06:43:30.165Z,83.87
2017-11-28T06:44:35.601Z,84.18
2017-11-28T06:45:40.846Z,84.26
2017-11-28T06:46:45.861Z,84.20
2017-11-28T06:47:51.028Z,84.40
2017-11-28T06:48:56.721Z,84.38
2017-11-28T06:50:01.938Z,84.86
2017-11-28T06:51:07.174Z,84.66
2017-11-28T06:52:12.401Z,84.65
2017-11-28T06:53:17.584Z,84.25
2017-11-28T06:54:22.741Z,84.32
2017-11-28T06:55:27.976Z,84.41
2017-11-28T06:56:36.304Z,84.24
2017-11-28T06:57:41.496Z,84.04
2017-11-28T06:58:46.681Z,84.05
2017-11-28T06:59:57.691Z,83.71
2017-11-28T07:01:05.022Z,83.78
2017-11-28T07:02:10.562Z,83.87
2017-11-28T07:03:16.101Z,84.04
2017-11-28T07:04:22.407Z,84.33
2017-11-28T07:05:29.564Z,84.25
2017-11-28T07:06:37.943Z,84.02
2017-11-28T07:07:43.843Z,84.19
2017-11-28T07:08:49.491Z,84.23
2017-11-28T07:09:54.707Z,84.32
2017-11-28T07:11:00.733Z,84.42
2017-11-28T07:12:06.114Z,84.42
2017-11-28T07:13:11.562Z,84.27
2017-11-28T07:14:16.782Z,83.98
2017-11-28T07:15:21.953Z,83.99
2017-11-28T07:16:27.148Z,83.96
2017-11-28T07:17:32.383Z,84.16
2017-11-28T07:18:37.776Z,84.30
2017-11-28T07:19:43.191Z,84.26
2017-11-28T07:20:48.622Z,84.39
2017-11-28T07:21:53.821Z,84.51
2017-11-28T07:22:59.304Z,84.59
2017-11-28T07:24:04.482Z,84.53
2017-11-28T07:25:09.674Z,84.43
2017-11-28T07:26:15.254Z,84.46
2017-11-28T07:27:20.429Z,84.27
2017-11-28T07:28:25.601Z,84.13
2017-11-28T07:29:30.753Z,84.41
2017-11-28T07:30:35.946Z,84.05
2017-11-28T07:31:51.785Z,84.01
2017-11-28T07:33:01.916Z,83.85
2017-11-28T07:34:07.109Z,83.91
2017-11-28T07:35:12.570Z,84.14
2017-11-28T07:36:17.787Z,83.80
2017-11-28T07:37:23.128Z,83.81
2017-11-28T07:38:28.320Z,83.80
2017-11-28T07:39:34.728Z,83.91
2017-11-28T07:40:39.908Z,84.04
2017-11-28T07:41:45.147Z,83.78
2017-11-28T07:42:50.418Z,83.75
2017-11-28T07:43:55.629Z,84.07
2017-11-28T07:45:01.115Z,83.70
2017-11-28T07:46:06.562Z,83.45
2017-11-28T07:47:11.977Z,83.59
2017-11-28T07:48:17.178Z,83.66
2017-11-28T07:49:22.348Z,83.82
2017-11-28T07:50:27.553Z,83.51
2017-11-28T07:51:32.781Z,83.26
2017-11-28T07:52:37.959Z,83.34
2017-11-28T07:53:43.151Z,83.45
2017-11-28T07:54:48.393Z,83.23
2017-11-28T07:55:53.618Z,83.21
2017-11-28T07:56:58.807Z,83.40
2017-11-28T07:58:04.046Z,83.36
2017-11-28T07:59:09.297Z,83.47
2017-11-28T08:00:14.908Z,83.59
2017-11-28T08:01:20.345Z,83.40
2017-11-28T08:02:25.571Z,83.33
2017-11-28T08:03:30.823Z,83.09
2017-11-28T08:04:36.242Z,83.28
2017-11-28T08:05:41.503Z,82.98
2017-11-28T08:06:46.738Z,83.15
2017-11-28T08:07:52.228Z,83.31
2017-11-28T08:08:57.616Z,83.34
2017-11-28T08:10:03.003Z,83.66
2017-11-28T08:11:08.198Z,83.50
2017-11-28T08:12:13.618Z,83.62
2017-11-28T08:13:18.862Z,83.77
2017-11-28T08:14:24.807Z,83.90
2017-11-28T08:15:29.987Z,83.70
2017-11-28T08:16:35.410Z,83.78
2017-11-28T08:17:40.694Z,83.90
2017-11-28T08:18:45.745Z,83.87
2017-11-28T08:19:50.912Z,83.60
2017-11-28T08:20:56.119Z,83.13
2017-11-28T08:22:01.501Z,83.20
2017-11-28T08:23:06.753Z,83.50
2017-11-28T08:24:12.018Z,83.74
2017-11-28T08:25:17.265Z,83.91
2017-11-28T08:26:22.461Z,84.00
2017-11-28T08:27:27.412Z,84.22
2017-11-28T08:28:32.450Z,84.03
2017-11-28T08:29:37.669Z,83.82
2017-11-28T08:30:42.915Z,83.93
2017-11-28T08:31:48.273Z,84.26
2017-11-28T08:32:53.341Z,84.33
2017-11-28T08:33:58.406Z,84.33
2017-11-28T08:35:03.658Z,84.40
2017-11-28T08:36:09.033Z,84.39
2017-11-28T08:37:14.091Z,84.28
2017-11-28T08:38:19.135Z,83.79
2017-11-28T08:39:24.125Z,83.91
2017-11-28T08:40:29.168Z,83.95
2017-11-28T08:41:34.482Z,83.84
2017-11-28T08:42:39.706Z,83.87
2017-11-28T08:43:44.713Z,83.74
2017-11-28T08:44:49.756Z,83.73
2017-11-28T08:45:54.995Z,83.73
2017-11-28T08:47:00.062Z,83.92
2017-11-28T08:48:05.272Z,84.14
2017-11-28T08:49:10.406Z,84.10
2017-11-28T08:50:15.644Z,84.34
2017-11-28T08:51:20.846Z,84.41
2017-11-28T08:52:25.846Z,84.13
2017-11-28T08:53:31.066Z,84.04
2017-11-28T08:54:36.288Z,83.99
2017-11-28T08:55:41.679Z,84.17
2017-11-28T08:56:47.071Z,84.16
2017-11-28T08:57:52.525Z,83.99
2017-11-28T08:58:57.950Z,83.96
2017-11-28T09:00:03.207Z,83.99
2017-11-28T09:01:08.610Z,84.17
2017-11-28T09:02:13.819Z,84.23
2017-11-28T09:03:19.232Z,84.14
2017-11-28T09:04:24.980Z,83.97
2017-11-28T09:05:30.381Z,83.80
2017-11-28T09:06:37.538Z,84.15
2017-11-28T09:07:42.759Z,84.23
2017-11-28T09:08:48.165Z,84.30
2017-11-28T09:09:53.363Z,84.42
2017-11-28T09:10:58.615Z,84.38
2017-11-28T09:12:04.905Z,84.33
2017-11-28T09:13:10.239Z,84.36
2017-11-28T09:14:17.169Z,84.45
2017-11-28T09:15:25.241Z,84.48
2017-11-28T09:16:30.973Z,84.18
2017-11-28T09:17:37.357Z,84.27
2017-11-28T09:18:46.485Z,83.97
2017-11-28T09:19:51.685Z,83.85
2017-11-28T09:20:56.877Z,83.82
2017-11-28T09:22:02.107Z,84.02
2017-11-28T09:23:07.484Z,84.01
2017-11-28T09:24:12.897Z,83.95
2017-11-28T09:25:18.080Z,84.12
2017-11-28T09:26:23.275Z,84.25
2017-11-28T09:27:28.834Z,84.29
2017-11-28T09:28:34.485Z,84.60
2017-11-28T09:29:39.688Z,84.54
2017-11-28T09:30:44.903Z,84.05
2017-11-28T09:31:50.117Z,84.23
2017-11-28T09:32:55.339Z,84.36
2017-11-28T09:34:00.748Z,84.30
2017-11-28T09:35:06.043Z,84.14
2017-11-28T09:36:11.280Z,84.29
2017-11-28T09:37:16.710Z,84.30
2017-11-28T09:38:21.942Z,84.05
2017-11-28T09:39:27.177Z,84.14
2017-11-28T09:40:32.931Z,84.12
2017-11-28T09:41:38.678Z,84.00
2017-11-28T09:42:44.138Z,83.97
2017-11-28T09:43:49.516Z,83.86
2017-11-28T09:44:54.909Z,84.23
2017-11-28T09:46:00.344Z,84.47
2017-11-28T09:47:08.492Z,84.33
2017-11-28T09:48:13.695Z,84.09
2017-11-28T09:49:19.364Z,83.72
2017-11-28T09:50:24.792Z,84.26
2017-11-28T09:51:29.973Z,84.33
2017-11-28T09:52:35.181Z,84.13
2017-11-28T09:53:40.581Z,84.15
2017-11-28T09:54:46.015Z,83.82
2017-11-28T09:55:51.792Z,83.80
2017-11-28T09:56:57.184Z,83.86
2017-11-28T09:58:03.246Z,83.62
2017-11-28T09:59:10.086Z,83.42
2017-11-28T10:00:15.519Z,83.25
2017-11-28T10:01:21.483Z,83.45
2017-11-28T10:02:30.452Z,83.85
2017-11-28T10:03:35.867Z,83.95
2017-11-28T10:04:41.457Z,83.80
2017-11-28T10:05:46.939Z,83.38
2017-11-28T10:06:52.532Z,83.45
2017-11-28T10:07:57.806Z,83.24
2017-11-28T10:09:03.356Z,82.98
2017-11-28T10:10:08.743Z,83.02
2017-11-28T10:11:14.139Z,83.08
2017-11-28T10:12:19.553Z,83.19
2017-11-28T10:13:25.307Z,83.15
2017-11-28T10:14:30.701Z,82.82
2017-11-28T10:15:36.445Z,82.56
2017-11-28T10:16:42.608Z,82.96
2017-11-28T10:17:48.035Z,83.10
2017-11-28T10:18:53.492Z,82.78
2017-11-28T10:19:58.888Z,82.73
2017-11-28T10:21:04.291Z,82.35
2017-11-28T10:22:09.904Z,82.33
2017-11-28T10:23:15.678Z,82.17
2017-11-28T10:24:21.411Z,82.33
2017-11-28T10:25:26.986Z,82.46
2017-11-28T10:26:33.293Z,82.28
2017-11-28T10:27:38.749Z,82.11
2017-11-28T10:28:44.180Z,82.12
2017-11-28T10:29:49.581Z,81.78
2017-11-28T10:30:55.038Z,81.79
2017-11-28T10:32:00.429Z,81.95
2017-11-28T10:33:05.919Z,82.06
2017-11-28T10:34:11.710Z,81.96
2017-11-28T10:35:17.169Z,81.97
2017-11-28T10:36:22.609Z,82.29
2017-11-28T10:37:27.910Z,82.21
2017-11-28T10:38:33.485Z,82.59
2017-11-28T10:39:39.241Z,82.54
2017-11-28T10:40:44.657Z,82.53
2017-11-28T10:41:49.880Z,82.53
2017-11-28T10:42:56.196Z,82.38
2017-11-28T10:44:01.603Z,82.13
2017-11-28T10:45:07.072Z,81.92
2017-11-28T10:46:13.042Z,81.76
2017-11-28T10:47:18.459Z,81.38
2017-11-28T10:48:23.894Z,81.58
2017-11-28T10:49:29.641Z,81.68
2017-11-28T10:50:35.420Z,81.54
2017-11-28T10:51:40.821Z,81.83
2017-11-28T10:52:46.587Z,82.08
2017-11-28T10:53:51.991Z,82.29
2017-11-28T10:54:57.347Z,82.12
2017-11-28T10:56:08.450Z,82.34
2017-11-28T10:57:13.905Z,82.13
2017-11-28T10:58:19.276Z,81.90
2017-11-28T10:59:24.652Z,81.82
2017-11-28T11:00:29.867Z,81.90
2017-11-28T11:01:35.068Z,81.81
2017-11-28T11:02:40.528Z,81.93
2017-11-28T11:03:46.018Z,81.46
2017-11-28T11:04:51.495Z,80.86
2017-11-28T11:05:57.279Z,80.57
2017-11-28T11:07:02.669Z,80.67
2017-11-28T11:08:08.137Z,80.92
2017-11-28T11:09:13.652Z,80.50
2017-11-28T11:10:19.088Z,80.02
2017-11-28T11:11:24.876Z,79.99
2017-11-28T11:12:30.263Z,80.01
2017-11-28T11:13:35.748Z,79.85
2017-11-28T11:14:41.502Z,80.31
2017-11-28T11:15:47.302Z,80.25
2017-11-28T11:16:53.039Z,80.12
2017-11-28T11:17:58.492Z,79.94
2017-11-28T11:19:04.176Z,79.89
2017-11-28T11:20:09.921Z,79.63
2017-11-28T11:21:15.193Z,79.93
2017-11-28T11:22:20.932Z,79.84
2017-11-28T11:23:26.686Z,79.78
2017-11-28T11:24:32.158Z,79.89
2017-11-28T11:25:37.565Z,79.47
2017-11-28T11:26:43.087Z,79.53
2017-11-28T11:27:48.465Z,79.52
2017-11-28T11:28:53.956Z,79.71
2017-11-28T11:30:00.014Z,79.49
2017-11-28T11:31:05.423Z,79.67
2017-11-28T11:32:10.800Z,79.47
2017-11-28T11:33:16.341Z,79.27
2017-11-28T11:34:21.933Z,79.60
2017-11-28T11:35:27.377Z,79.70
2017-11-28T11:36:32.761Z,79.33
2017-11-28T11:37:38.300Z,79.24
2017-11-28T11:38:43.704Z,79.16
2017-11-28T11:39:49.128Z,79.44
2017-11-28T11:40:54.531Z,79.25
2017-11-28T11:42:00.301Z,79.08
2017-11-28T11:43:05.682Z,79.17
2017-11-28T11:44:11.139Z,79.54
2017-11-28T11:45:16.367Z,79.84
2017-11-28T11:46:21.791Z,79.89
2017-11-28T11:47:27.901Z,79.53
2017-11-28T11:48:33.327Z,79.53
2017-11-28T11:49:38.554Z,79.66
2017-11-28T11:50:43.972Z,79.77
2017-11-28T11:51:49.361Z,79.81
2017-11-28T11:52:59.638Z,79.54
2017-11-28T11:54:08.306Z,79.78
2017-11-28T11:55:14.584Z,80.08
2017-11-28T11:56:20.006Z,80.05
2017-11-28T11:57:25.187Z,80.17
2017-11-28T11:58:31.264Z,80.30
2017-11-28T11:59:36.701Z,80.29
2017-11-28T12:00:42.159Z,80.01
2017-11-28T12:01:47.849Z,79.77
2017-11-28T12:02:53.262Z,79.67
2017-11-28T12:03:59.021Z,79.63
2017-11-28T12:05:04.461Z,79.57
2017-11-28T12:06:09.908Z,79.56
2017-11-28T12:07:16.288Z,79.42
2017-11-28T12:08:21.725Z,79.60
2017-11-28T12:09:27.129Z,79.54
2017-11-28T12:10:32.518Z,79.84
2017-11-28T12:11:38.057Z,79.43
2017-11-28T12:12:43.458Z,79.29
2017-11-28T12:13:49.466Z,79.61
2017-11-28T12:14:54.889Z,79.66
2017-11-28T12:16:00.283Z,79.37
2017-11-28T12:17:05.726Z,79.49
2017-11-28T12:18:11.107Z,79.90
2017-11-28T12:19:16.500Z,79.65
2017-11-28T12:20:21.969Z,79.29
2017-11-28T12:21:27.404Z,79.71
2017-11-28T12:22:33.005Z,79.82
2017-11-28T12:23:38.194Z,79.70
2017-11-28T12:24:43.590Z,79.36
2017-11-28T12:25:48.979Z,78.79
2017-11-28T12:26:54.570Z,78.66
2017-11-28T12:27:59.773Z,78.25
2017-11-28T12:29:05.169Z,77.90
2017-11-28T12:30:11.377Z,77.36
2017-11-28T12:31:16.773Z,76.76
2017-11-28T12:32:22.239Z,76.54
2017-11-28T12:33:27.672Z,76.36
2017-11-28T12:34:33.283Z,76.26
2017-11-28T12:35:38.714Z,75.93
2017-11-28T12:36:44.187Z,75.49
2017-11-28T12:37:49.705Z,75.29
2017-11-28T12:38:55.483Z,74.96
2017-11-28T12:40:00.891Z,75.08
2017-11-28T12:41:06.152Z,75.41
2017-11-28T12:42:11.753Z,75.60
2017-11-28T12:43:17.198Z,75.83
2017-11-28T12:44:23.025Z,75.75
2017-11-28T12:45:28.441Z,75.59
2017-11-28T12:46:33.866Z,75.45
2017-11-28T12:47:39.324Z,75.46
2017-11-28T12:48:45.414Z,75.28
2017-11-28T12:49:50.901Z,75.13
2017-11-28T12:50:56.385Z,75.10
2017-11-28T12:52:01.777Z,74.64
2017-11-28T12:53:07.182Z,74.50
2017-11-28T12:54:12.603Z,74.37
2017-11-28T12:55:18.024Z,74.38
2017-11-28T12:56:23.758Z,74.72
2017-11-28T12:57:29.174Z,74.54
2017-11-28T12:58:34.949Z,74.58
2017-11-28T12:59:40.227Z,74.38
2017-11-28T13:00:45.653Z,74.77
2017-11-28T13:01:51.353Z,74.75
2017-11-28T13:02:56.827Z,75.05
2017-11-28T13:04:02.212Z,75.00
2017-11-28T13:05:07.624Z,74.65
2017-11-28T13:06:13.056Z,74.32
2017-11-28T13:07:18.444Z,73.89
2017-11-28T13:08:25.125Z,73.70
2017-11-28T13:09:30.588Z,73.96
2017-11-28T13:10:36.191Z,73.44
2017-11-28T13:11:41.371Z,73.19
2017-11-28T13:12:46.765Z,73.76
2017-11-28T13:13:52.294Z,73.79
2017-11-28T13:14:57.492Z,74.46
2017-11-28T13:16:02.872Z,74.56
2017-11-28T13:17:08.292Z,74.66
2017-11-28T13:18:13.491Z,75.11
2017-11-28T13:19:18.874Z,75.30
2017-11-28T13:20:24.265Z,75.46
2017-11-28T13:21:29.641Z,75.83
2017-11-28T13:22:37.381Z,76.06
2017-11-28T13:23:42.645Z,75.84
2017-11-28T13:24:48.065Z,75.73
2017-11-28T13:25:53.528Z,75.77
2017-11-28T13:26:59.005Z,75.86
2017-11-28T13:28:04.496Z,75.90
2017-11-28T13:29:09.908Z,75.50
2017-11-28T13:30:15.825Z,75.70
2017-11-28T13:31:21.240Z,75.75
2017-11-28T13:32:26.964Z,75.61
2017-11-28T13:33:32.352Z,75.61
2017-11-28T13:34:37.801Z,75.50
2017-11-28T13:35:43.456Z,75.73
2017-11-28T13:36:49.559Z,75.44
2017-11-28T13:37:55.249Z,75.39
2017-11-28T13:39:00.690Z,75.65
2017-11-28T13:40:05.894Z,75.26
2017-11-28T13:41:10.892Z,75.28
2017-11-28T13:42:16.646Z,75.58
2017-11-28T13:43:21.909Z,75.92
2017-11-28T13:44:27.304Z,75.46
2017-11-28T13:45:32.496Z,75.53
2017-11-28T13:46:37.910Z,75.28
2017-11-28T13:47:43.186Z,74.91
2017-11-28T13:48:48.607Z,75.42
2017-11-28T13:49:54.152Z,75.40
2017-11-28T13:50:59.575Z,75.13
2017-11-28T13:52:04.586Z,75.31
2017-11-28T13:53:11.842Z,75.54
2017-11-28T13:54:17.678Z,75.36
2017-11-28T13:55:23.483Z,75.48
2017-11-28T13:56:29.377Z,75.94
2017-11-28T13:57:35.074Z,75.96
2017-11-28T13:58:41.233Z,76.16
2017-11-28T13:59:47.203Z,76.25
2017-11-28T14:00:52.718Z,76.23
2017-11-28T14:01:58.654Z,76.09
2017-11-28T14:03:03.884Z,75.98
2017-11-28T14:04:09.690Z,75.53
2017-11-28T14:05:15.154Z,75.43
2017-11-28T14:06:20.417Z,75.43
2017-11-28T14:07:26.166Z,75.52